Time;durP1;ratioP1;P1;durP2;ratioP2;P2;SDS_P1;SDS_P2;PMS_P1;PMS_P2;Temp;Humidity;BMP_temperature;BMP_pressure;BME280_temperature;BME280_humidity;BME280_pressure;Samples;Min_cycle;Max_cycle;Signal;HPM_P1;HPM_P2
2021/06/01 00:01:51;;;;;;;21.13;14.20;;;13.70;88.70;;;;;;4936893;29;20042;-81
2021/06/01 00:04:17;;;;;;;21.25;14.07;;;13.70;89.00;;;;;;4944111;29;20066;-81
2021/06/01 00:06:44;;;;;;;19.23;13.52;;;13.60;89.00;;;;;;4953510;28;20027;-80
2021/06/01 00:09:16;;;;;;;22.90;13.95;;;13.60;89.40;;;;;;4948773;28;20035;-80
2021/06/01 00:11:43;;;;;;;23.38;13.63;;;13.60;89.70;;;;;;4953083;29;20103;-81
2021/06/01 00:14:09;;;;;;;19.40;13.98;;;13.60;89.40;;;;;;4956490;28;20577;-80
2021/06/01 00:16:35;;;;;;;22.23;13.70;;;13.50;89.80;;;;;;4971005;28;20124;-80
2021/06/01 00:19:02;;;;;;;18.05;12.45;;;13.50;89.70;;;;;;4936851;29;20037;-80
2021/06/01 00:21:27;;;;;;;20.63;13.30;;;13.40;89.90;;;;;;4952612;28;20027;-80
2021/06/01 00:23:54;;;;;;;25.63;14.27;;;13.40;90.00;;;;;;4958353;28;20093;-80
2021/06/01 00:26:22;;;;;;;20.20;13.95;;;13.40;90.10;;;;;;4941503;28;20471;-79
2021/06/01 00:28:50;;;;;;;20.42;13.18;;;13.40;90.10;;;;;;4929483;28;20418;-79
2021/06/01 00:31:16;;;;;;;21.30;13.10;;;13.40;90.10;;;;;;4926746;28;20113;-81
2021/06/01 00:33:42;;;;;;;18.60;13.35;;;13.30;90.40;;;;;;4965478;28;20492;-81
2021/06/01 00:36:08;;;;;;;19.20;12.82;;;13.30;90.20;;;;;;4928852;29;20035;-80
2021/06/01 00:38:35;;;;;;;21.05;13.55;;;13.30;90.20;;;;;;4940412;28;20031;-81
2021/06/01 00:41:02;;;;;;;22.73;13.85;;;13.30;90.30;;;;;;4936751;28;20490;-80
2021/06/01 00:43:28;;;;;;;22.35;13.18;;;13.30;90.20;;;;;;4938424;28;20054;-80
2021/06/01 00:45:53;;;;;;;21.00;14.27;;;13.30;90.10;;;;;;4936773;28;20032;-80
2021/06/01 00:48:19;;;;;;;21.45;13.98;;;13.20;90.20;;;;;;4937568;28;20036;-80
2021/06/01 00:50:45;;;;;;;17.90;13.32;;;13.20;90.20;;;;;;4929036;28;20106;-80
2021/06/01 00:53:11;;;;;;;22.65;14.23;;;13.20;90.30;;;;;;4921066;29;20352;-79
2021/06/01 00:55:38;;;;;;;21.60;13.98;;;13.10;90.40;;;;;;4935742;28;20043;-80
2021/06/01 00:58:04;;;;;;;19.67;13.80;;;13.10;90.40;;;;;;4949790;28;20127;-79
2021/06/01 01:02:56;;;;;;;25.52;14.27;;;13.00;90.50;;;;;;4919282;28;20046;-81
2021/06/01 01:05:26;;;;;;;19.10;14.38;;;13.00;90.70;;;;;;4954949;28;20094;-81
2021/06/01 01:08:08;;;;;;;21.05;14.20;;;13.00;90.70;;;;;;4943961;28;20047;-80
2021/06/01 01:10:37;;;;;;;23.80;14.27;;;13.00;90.70;;;;;;4934996;28;20036;-81
2021/06/01 01:13:06;;;;;;;20.17;13.35;;;12.90;90.70;;;;;;4952130;28;20102;-79
2021/06/01 01:15:35;;;;;;;24.27;14.43;;;12.90;90.80;;;;;;4952655;28;20048;-80
2021/06/01 01:18:09;;;;;;;20.58;14.93;;;12.80;90.80;;;;;;4941246;28;20050;-81
2021/06/01 01:20:59;;;;;;;20.63;13.75;;;12.80;90.90;;;;;;4966132;28;20044;-80
2021/06/01 01:23:28;;;;;;;17.85;13.90;;;12.80;91.00;;;;;;4946409;28;20039;-81
2021/06/01 01:26:17;;;;;;;22.60;13.60;;;12.70;91.00;;;;;;4957222;28;20462;-81
2021/06/01 01:29:18;;;;;;;21.08;13.80;;;12.70;91.30;;;;;;4949554;28;20113;-81
2021/06/01 01:31:51;;;;;;;25.67;14.88;;;12.60;91.20;;;;;;4940021;28;20236;-79
2021/06/01 01:34:18;;;;;;;23.20;14.55;;;12.60;91.10;;;;;;4945381;28;20111;-81
2021/06/01 01:36:46;;;;;;;23.48;14.43;;;12.60;91.00;;;;;;4936827;28;20070;-81
2021/06/01 01:39:14;;;;;;;27.27;15.07;;;12.60;91.10;;;;;;4979213;28;20039;-81
2021/06/01 01:41:40;;;;;;;20.17;14.82;;;12.60;91.20;;;;;;4958525;28;20480;-81
2021/06/01 01:44:10;;;;;;;29.33;15.60;;;12.50;91.30;;;;;;4984372;28;20074;-81
2021/06/01 01:49:17;;;;;;;26.33;15.20;;;12.50;91.50;;;;;;4988059;28;20063;-81
2021/06/01 01:51:45;;;;;;;22.88;15.05;;;12.40;91.50;;;;;;4951464;28;20855;-81
2021/06/01 01:54:14;;;;;;;26.10;16.17;;;12.30;91.70;;;;;;4970302;28;20044;-81
2021/06/01 01:56:46;;;;;;;23.50;15.65;;;12.30;91.80;;;;;;4952597;28;20046;-81
2021/06/01 01:59:18;;;;;;;22.93;15.40;;;12.30;91.80;;;;;;4939840;28;20051;-81
2021/06/01 02:01:50;;;;;;;22.40;15.82;;;12.20;91.90;;;;;;4948271;28;20046;-80
2021/06/01 02:04:24;;;;;;;23.63;16.50;;;12.20;92.10;;;;;;4966156;28;20046;-79
2021/06/01 02:06:51;;;;;;;24.90;16.20;;;12.10;92.10;;;;;;4975406;28;20047;-80
2021/06/01 02:09:17;;;;;;;25.38;15.77;;;12.10;92.10;;;;;;4958883;28;20035;-80
2021/06/01 02:11:43;;;;;;;23.73;15.77;;;12.10;92.20;;;;;;4950823;28;20050;-80
2021/06/01 02:14:10;;;;;;;26.38;16.15;;;12.10;92.10;;;;;;4953182;29;20047;-80
2021/06/01 02:16:39;;;;;;;23.45;15.55;;;12.10;92.10;;;;;;4953194;28;20119;-81
2021/06/01 02:19:06;;;;;;;26.33;15.15;;;12.10;92.20;;;;;;4984987;28;20489;-81
2021/06/01 02:24:15;;;;;;;27.27;16.83;;;12.00;92.50;;;;;;4944088;28;20072;-80
2021/06/01 02:26:41;;;;;;;25.58;15.70;;;11.90;92.30;;;;;;4968179;28;20050;-81
2021/06/01 02:29:14;;;;;;;22.70;15.70;;;11.90;92.30;;;;;;4938812;28;20035;-81
2021/06/01 02:31:43;;;;;;;28.65;17.00;;;11.90;92.40;;;;;;4941488;28;20066;-82
2021/06/01 02:34:13;;;;;;;25.70;16.63;;;11.90;92.40;;;;;;4938463;28;20098;-80
2021/06/01 02:36:40;;;;;;;28.35;17.10;;;11.80;92.60;;;;;;4943680;28;20046;-81
2021/06/01 02:39:06;;;;;;;28.65;17.63;;;11.80;92.50;;;;;;4966689;28;20051;-81
2021/06/01 02:41:33;;;;;;;26.25;17.48;;;11.80;92.50;;;;;;4975475;28;20387;-81
2021/06/01 02:44:00;;;;;;;24.05;17.10;;;11.80;92.60;;;;;;4960780;28;20058;-80
2021/06/01 02:46:26;;;;;;;28.02;18.15;;;11.70;92.50;;;;;;4941192;28;20037;-81
2021/06/01 02:48:54;;;;;;;29.77;18.35;;;11.70;92.50;;;;;;4942543;28;20043;-79
2021/06/01 02:51:20;;;;;;;26.23;17.92;;;11.70;92.80;;;;;;4976813;28;20046;-80
2021/06/01 02:53:57;;;;;;;28.75;17.38;;;11.70;92.90;;;;;;4981408;28;20074;-80
2021/06/01 02:56:23;;;;;;;25.33;17.67;;;11.60;93.00;;;;;;4953824;29;20035;-81
2021/06/01 02:58:51;;;;;;;31.50;18.42;;;11.60;93.10;;;;;;4935011;29;20042;-81
2021/06/01 03:01:19;;;;;;;29.58;19.25;;;11.60;93.00;;;;;;4977311;28;20164;-81
2021/06/01 03:03:53;;;;;;;28.17;18.23;;;11.50;93.00;;;;;;4942157;28;20054;-81
2021/06/01 03:06:21;;;;;;;30.15;18.42;;;11.50;93.00;;;;;;4938986;28;20055;-80
2021/06/01 03:08:47;;;;;;;29.05;17.95;;;11.50;93.20;;;;;;4944311;28;20435;-82
2021/06/01 03:11:15;;;;;;;27.65;18.52;;;11.50;93.40;;;;;;4938985;28;20410;-81
2021/06/01 03:13:43;;;;;;;29.38;18.75;;;11.50;93.30;;;;;;4953560;28;20099;-79
2021/06/01 03:16:09;;;;;;;29.45;17.70;;;11.40;93.40;;;;;;4927140;28;20047;-79
2021/06/01 03:18:35;;;;;;;29.05;19.13;;;11.40;93.70;;;;;;4957288;28;20134;-81
2021/06/01 03:21:02;;;;;;;31.38;18.55;;;11.30;93.70;;;;;;4961614;28;20070;-80
2021/06/01 03:23:27;;;;;;;28.75;18.33;;;11.30;93.80;;;;;;4958029;28;20512;-81
2021/06/01 03:25:54;;;;;;;28.38;18.48;;;11.30;93.60;;;;;;4942022;29;20039;-80
2021/06/01 03:28:21;;;;;;;30.40;19.30;;;11.30;93.70;;;;;;4954451;29;20047;-80
2021/06/01 03:30:48;;;;;;;33.05;18.80;;;11.30;93.80;;;;;;4948167;28;20031;-81
2021/06/01 03:33:14;;;;;;;27.38;18.33;;;11.30;93.70;;;;;;4922263;28;20071;-81
2021/06/01 03:35:40;;;;;;;31.83;19.90;;;11.30;93.90;;;;;;4928380;29;20720;-79
2021/06/01 03:38:07;;;;;;;31.20;18.95;;;11.30;93.80;;;;;;4950073;28;20121;-81
2021/06/01 03:40:33;;;;;;;32.22;19.92;;;11.30;93.90;;;;;;4960082;28;20043;-80
2021/06/01 03:42:59;;;;;;;32.45;18.70;;;11.30;94.00;;;;;;4951918;28;20155;-81
2021/06/01 03:45:26;;;;;;;26.52;18.50;;;11.30;94.10;;;;;;4970650;28;20035;-81
2021/06/01 03:47:53;;;;;;;34.30;18.25;;;11.30;94.00;;;;;;4953125;28;20039;-80
2021/06/01 03:50:19;;;;;;;36.40;19.20;;;11.30;94.10;;;;;;4957836;28;20077;-80
2021/06/01 03:52:46;;;;;;;31.25;19.42;;;11.30;94.00;;;;;;4954869;28;20031;-81
2021/06/01 03:55:13;;;;;;;33.72;20.15;;;11.30;94.20;;;;;;4923870;29;20035;-81
2021/06/01 03:57:39;;;;;;;34.55;19.40;;;11.30;94.20;;;;;;4960874;28;20232;-80
2021/06/01 04:00:09;;;;;;;32.83;21.00;;;11.30;94.10;;;;;;4953311;28;20041;-82
2021/06/01 04:02:35;;;;;;;29.60;20.38;;;11.30;94.10;;;;;;4955266;28;20028;-81
2021/06/01 04:05:01;;;;;;;29.98;19.67;;;11.40;94.20;;;;;;4934234;29;20116;-81
2021/06/01 04:07:27;;;;;;;30.23;18.77;;;11.40;94.10;;;;;;4956996;28;20032;-81
2021/06/01 04:09:53;;;;;;;29.08;19.55;;;11.40;94.10;;;;;;4956634;28;20127;-81
2021/06/01 04:12:19;;;;;;;34.17;20.52;;;11.50;94.10;;;;;;4928237;29;20042;-82
2021/06/01 04:14:44;;;;;;;31.00;19.60;;;11.50;94.10;;;;;;4936589;28;20032;-81
2021/06/01 04:17:11;;;;;;;39.90;21.05;;;11.60;94.10;;;;;;4925400;29;20174;-82
2021/06/01 04:19:37;;;;;;;28.58;19.90;;;11.60;94.10;;;;;;4962577;28;20155;-79
2021/06/01 04:22:03;;;;;;;31.75;19.92;;;11.70;94.00;;;;;;4962783;28;20065;-81
2021/06/01 04:24:31;;;;;;;34.20;20.15;;;11.70;94.00;;;;;;4964112;28;20035;-79
2021/06/01 04:26:58;;;;;;;32.60;19.92;;;11.70;94.00;;;;;;4940334;28;20098;-81
2021/06/01 04:29:24;;;;;;;31.38;19.75;;;11.80;94.10;;;;;;4940769;28;20047;-81
2021/06/01 04:31:50;;;;;;;31.75;20.30;;;11.90;94.20;;;;;;4931119;28;20043;-82
2021/06/01 04:34:17;;;;;;;34.95;20.33;;;11.80;94.20;;;;;;4963409;28;20107;-82
2021/06/01 04:36:43;;;;;;;33.38;21.17;;;11.90;94.00;;;;;;4963050;28;20044;-81
2021/06/01 04:39:09;;;;;;;40.47;20.52;;;12.00;94.00;;;;;;4939246;28;20036;-82
2021/06/01 04:41:35;;;;;;;27.30;20.17;;;12.00;94.00;;;;;;4948683;28;20035;-82
2021/06/01 04:44:01;;;;;;;31.17;20.70;;;12.00;94.00;;;;;;4941099;29;20130;-80
2021/06/01 04:46:27;;;;;;;31.52;20.42;;;12.10;94.00;;;;;;4919700;29;20656;-81
2021/06/01 04:48:53;;;;;;;33.55;21.30;;;12.10;93.90;;;;;;4968950;28;20409;-80
2021/06/01 04:51:19;;;;;;;28.73;19.10;;;12.20;93.90;;;;;;4951838;28;20070;-81
2021/06/01 04:53:53;;;;;;;31.80;20.10;;;12.20;93.90;;;;;;4957900;28;20043;-81
2021/06/01 04:56:19;;;;;;;27.98;20.35;;;12.30;93.80;;;;;;4954265;29;20078;-81
2021/06/01 04:58:46;;;;;;;33.70;18.55;;;12.40;93.70;;;;;;4955351;28;20071;-81
2021/06/01 05:01:11;;;;;;;30.45;20.15;;;12.50;93.50;;;;;;4947099;28;20074;-81
2021/06/01 05:03:38;;;;;;;32.20;20.33;;;12.60;93.40;;;;;;4962059;28;20058;-80
2021/06/01 05:06:05;;;;;;;25.50;18.55;;;12.60;93.60;;;;;;4939899;28;20090;-81
2021/06/01 05:08:31;;;;;;;29.00;17.38;;;12.70;93.20;;;;;;4938602;28;20103;-82
2021/06/01 05:10:57;;;;;;;25.38;17.67;;;12.80;92.90;;;;;;4930206;28;20035;-81
2021/06/01 05:13:22;;;;;;;24.70;16.70;;;12.90;92.80;;;;;;4949024;28;20043;-81
2021/06/01 05:15:49;;;;;;;27.60;16.75;;;13.00;92.50;;;;;;4919982;28;20046;-81
2021/06/01 05:18:16;;;;;;;25.20;17.38;;;13.10;92.40;;;;;;4936214;28;20048;-79
2021/06/01 05:20:43;;;;;;;23.83;17.23;;;13.20;92.40;;;;;;4968945;28;20051;-80
2021/06/01 05:23:09;;;;;;;23.88;15.48;;;13.30;92.20;;;;;;4953975;28;20166;-80
2021/06/01 05:25:35;;;;;;;21.70;15.20;;;13.40;92.10;;;;;;4919207;29;20047;-81
2021/06/01 05:28:01;;;;;;;24.23;15.50;;;13.40;92.00;;;;;;4950195;28;20051;-81
2021/06/01 05:30:36;;;;;;;24.20;14.65;;;13.50;91.90;;;;;;4949645;28;20451;-82
2021/06/01 05:35:29;;;;;;;20.85;14.15;;;13.70;91.40;;;;;;4960653;28;20039;-80
2021/06/01 05:37:55;;;;;;;17.63;12.98;;;13.80;91.10;;;;;;4936446;28;20039;-81
2021/06/01 05:40:21;;;;;;;19.92;13.73;;;13.90;90.60;;;;;;4926114;29;20472;-81
2021/06/01 05:42:46;;;;;;;22.70;13.88;;;14.00;90.20;;;;;;4961010;28;20398;-82
2021/06/01 05:45:13;;;;;;;19.23;12.77;;;14.10;89.30;;;;;;4942138;29;20043;-81
2021/06/01 05:47:39;;;;;;;16.70;12.93;;;14.20;89.50;;;;;;4971805;28;20042;-81
2021/06/01 05:50:05;;;;;;;17.80;12.73;;;14.30;88.60;;;;;;4954003;28;20506;-81
2021/06/01 05:52:35;;;;;;;17.58;11.75;;;14.40;88.10;;;;;;4969797;28;20042;-81
2021/06/01 05:55:03;;;;;;;20.52;12.95;;;14.50;87.50;;;;;;4972117;28;20043;-79
2021/06/01 05:57:29;;;;;;;19.33;11.60;;;14.50;87.30;;;;;;4939711;28;20077;-80
2021/06/01 05:59:55;;;;;;;21.80;14.93;;;14.60;87.10;;;;;;4922093;28;20043;-81
2021/06/01 06:02:20;;;;;;;20.10;14.13;;;14.70;86.90;;;;;;4943088;28;20041;-81
2021/06/01 06:04:47;;;;;;;22.75;13.63;;;14.80;87.00;;;;;;4924746;28;20503;-81
2021/06/01 06:07:13;;;;;;;19.15;13.10;;;14.90;86.60;;;;;;4950276;28;20237;-82
2021/06/01 06:09:39;;;;;;;17.63;12.07;;;15.00;86.50;;;;;;4936765;28;20176;-81
2021/06/01 06:12:05;;;;;;;18.73;13.93;;;15.10;86.50;;;;;;4956929;28;20117;-81
2021/06/01 06:14:31;;;;;;;17.65;13.30;;;15.10;86.30;;;;;;4936874;28;20035;-81
2021/06/01 06:17:02;;;;;;;19.38;14.32;;;15.20;86.20;;;;;;4937249;28;20086;-81
2021/06/01 06:19:28;;;;;;;18.02;12.00;;;15.30;85.40;;;;;;4964724;28;20035;-81
2021/06/01 06:21:54;;;;;;;17.20;12.35;;;15.40;84.60;;;;;;4945288;28;20075;-80
2021/06/01 06:24:20;;;;;;;14.57;11.32;;;15.50;84.10;;;;;;4948515;28;20717;-81
2021/06/01 06:26:46;;;;;;;18.05;11.77;;;15.60;83.50;;;;;;4973856;28;20039;-80
2021/06/01 06:29:12;;;;;;;20.67;10.75;;;15.80;83.40;;;;;;4924785;28;20043;-81
2021/06/01 06:31:38;;;;;;;13.73;11.15;;;15.90;83.10;;;;;;4952025;28;20588;-81
2021/06/01 06:34:04;;;;;;;13.88;9.95;;;16.00;82.70;;;;;;4953074;28;20039;-81
2021/06/01 06:36:31;;;;;;;16.15;10.98;;;16.20;81.70;;;;;;4971554;28;20097;-81
2021/06/01 06:38:58;;;;;;;19.60;10.10;;;16.40;80.80;;;;;;4960491;28;20043;-81
2021/06/01 06:41:24;;;;;;;15.55;10.40;;;16.50;81.40;;;;;;4922171;29;20035;-81
2021/06/01 06:43:53;;;;;;;15.50;9.93;;;16.60;81.00;;;;;;4948528;28;20047;-80
2021/06/01 06:46:35;;;;;;;11.27;8.82;;;16.80;80.70;;;;;;4952033;28;20027;-81
2021/06/01 06:49:03;;;;;;;14.52;8.57;;;16.90;79.30;;;;;;4949147;28;20047;-81
2021/06/01 06:51:31;;;;;;;10.73;8.57;;;17.00;79.00;;;;;;4950672;28;20367;-82
2021/06/01 06:53:58;;;;;;;9.70;7.45;;;17.20;78.80;;;;;;4926608;29;20047;-82
2021/06/01 06:56:26;;;;;;;9.43;7.03;;;17.30;78.70;;;;;;4928971;28;20039;-82
2021/06/01 06:58:52;;;;;;;13.50;7.00;;;17.40;77.70;;;;;;4936149;28;20081;-82
2021/06/01 07:01:19;;;;;;;9.90;6.25;;;17.60;75.80;;;;;;4918893;28;20383;-83
2021/06/01 07:03:45;;;;;;;9.20;6.25;;;17.80;73.30;;;;;;4936828;28;20395;-82
2021/06/01 07:06:11;;;;;;;9.25;5.55;;;17.90;73.60;;;;;;4919689;28;20046;-82
2021/06/01 07:08:37;;;;;;;9.70;4.63;;;18.00;74.20;;;;;;4933519;28;20043;-81
2021/06/01 07:11:08;;;;;;;8.85;4.47;;;18.20;73.80;;;;;;4933035;28;20422;-81
2021/06/01 07:13:49;;;;;;;10.05;4.40;;;18.20;72.60;;;;;;4934462;28;20047;-80
2021/06/01 07:16:16;;;;;;;7.43;4.97;;;18.30;71.10;;;;;;4943351;28;20637;-81
2021/06/01 07:18:42;;;;;;;6.72;4.65;;;18.50;71.50;;;;;;4945351;28;20363;-82
2021/06/01 07:21:11;;;;;;;7.93;5.90;;;18.50;70.70;;;;;;4980425;28;20035;-82
2021/06/01 07:23:39;;;;;;;5.35;4.30;;;18.60;68.80;;;;;;4908015;29;20727;-82
2021/06/01 07:26:06;;;;;;;9.10;5.38;;;18.70;69.20;;;;;;4945394;28;20559;-82
2021/06/01 07:28:52;;;;;;;7.72;4.13;;;18.80;68.50;;;;;;4927213;28;20508;-82
2021/06/01 07:31:23;;;;;;;7.75;4.63;;;19.00;68.90;;;;;;4921286;29;20045;-81
2021/06/01 07:33:56;;;;;;;6.88;4.07;;;19.00;68.60;;;;;;4934642;28;20058;-81
2021/06/01 07:36:23;;;;;;;7.47;4.20;;;19.10;68.00;;;;;;4906915;28;20552;-81
2021/06/01 07:38:49;;;;;;;7.03;4.18;;;19.20;67.10;;;;;;4937934;28;20047;-81
2021/06/01 07:41:16;;;;;;;9.13;5.07;;;19.30;66.70;;;;;;4938515;28;20035;-78
2021/06/01 07:43:43;;;;;;;9.18;5.35;;;19.40;65.30;;;;;;4923432;29;20514;-82
2021/06/01 07:46:09;;;;;;;8.35;5.10;;;19.50;65.60;;;;;;4939367;28;20039;-82
2021/06/01 07:48:39;;;;;;;4.25;3.35;;;19.60;64.20;;;;;;4962447;28;20041;-82
2021/06/01 07:51:10;;;;;;;9.18;4.20;;;19.70;63.50;;;;;;4928232;28;20047;-80
2021/06/01 07:53:40;;;;;;;5.38;3.80;;;19.80;63.90;;;;;;4942958;28;20106;-80
2021/06/01 07:56:09;;;;;;;5.78;3.53;;;19.90;63.10;;;;;;4955873;28;20147;-82
2021/06/01 07:58:55;;;;;;;8.00;3.95;;;19.90;63.60;;;;;;4944939;28;20129;-83
2021/06/01 08:01:23;;;;;;;6.38;3.28;;;19.90;63.10;;;;;;4925200;29;20051;-82
2021/06/01 08:03:50;;;;;;;6.68;3.00;;;20.00;60.90;;;;;;4931638;28;20407;-82
2021/06/01 08:06:16;;;;;;;5.10;2.95;;;20.10;61.20;;;;;;4934848;28;20051;-81
2021/06/01 08:08:42;;;;;;;4.97;2.60;;;20.10;60.70;;;;;;4938262;28;20090;-82
2021/06/01 08:11:08;;;;;;;4.88;2.65;;;20.20;59.40;;;;;;4922395;29;20419;-82
2021/06/01 08:13:37;;;;;;;6.50;2.58;;;20.20;57.40;;;;;;4961802;28;20048;-81
2021/06/01 08:16:03;;;;;;;6.85;2.63;;;20.30;58.00;;;;;;4932320;29;20101;-82
2021/06/01 08:18:34;;;;;;;7.55;2.50;;;20.40;57.30;;;;;;4963623;28;20031;-82
2021/06/01 08:21:09;;;;;;;5.15;2.80;;;20.50;57.20;;;;;;4949660;28;20035;-82
2021/06/01 08:23:36;;;;;;;7.90;2.78;;;20.50;57.60;;;;;;4941156;28;20047;-83
2021/06/01 08:26:03;;;;;;;5.65;2.70;;;20.50;57.20;;;;;;4942904;28;20047;-83
2021/06/01 08:28:30;;;;;;;6.53;2.60;;;20.50;55.10;;;;;;4931902;29;20090;-83
2021/06/01 08:30:56;;;;;;;5.75;2.53;;;20.50;55.30;;;;;;4932805;29;20043;-81
2021/06/01 08:33:22;;;;;;;5.50;2.90;;;20.50;54.60;;;;;;4947942;28;20046;-82
2021/06/01 08:35:48;;;;;;;4.28;2.42;;;20.60;55.00;;;;;;4941451;28;20058;-83
2021/06/01 08:38:17;;;;;;;7.68;2.42;;;20.60;53.80;;;;;;4920941;29;20039;-83
2021/06/01 08:40:48;;;;;;;2.85;1.90;;;20.60;52.40;;;;;;4956790;28;20506;-80
2021/06/01 08:43:17;;;;;;;5.03;2.50;;;20.60;52.20;;;;;;4968128;28;20062;-82
2021/06/01 08:45:49;;;;;;;6.70;2.40;;;20.60;52.30;;;;;;4983695;28;20035;-80
2021/06/01 08:48:16;;;;;;;5.30;2.40;;;20.60;50.40;;;;;;4949821;29;20477;-81
2021/06/01 08:50:47;;;;;;;4.43;2.50;;;20.60;48.40;;;;;;4989631;28;20079;-79
2021/06/01 08:53:14;;;;;;;4.20;2.45;;;20.70;48.90;;;;;;4954104;28;20145;-81
2021/06/01 08:55:40;;;;;;;3.22;2.40;;;20.70;49.60;;;;;;4941683;28;20035;-81
2021/06/01 08:58:13;;;;;;;4.10;2.60;;;20.70;50.80;;;;;;4937859;28;20490;-82
2021/06/01 09:00:38;;;;;;;6.65;2.90;;;20.70;47.70;;;;;;4932361;28;20534;-80
2021/06/01 09:03:16;;;;;;;4.95;2.47;;;20.70;49.00;;;;;;4923825;28;20035;-82
2021/06/01 09:15:10;;;;;;;3.42;2.00;;;20.80;50.80;;;;;;4935750;28;20031;-81
2021/06/01 09:23:00;;;;;;;4.82;2.60;;;20.80;48.70;;;;;;4943812;28;20433;-84
2021/06/01 09:28:02;;;;;;;5.97;2.58;;;20.90;49.30;;;;;;4944489;28;20106;-79
2021/06/01 09:30:42;;;;;;;8.00;2.83;;;21.00;51.30;;;;;;4939328;28;20667;-81
2021/06/01 09:33:20;;;;;;;4.18;2.33;;;20.90;49.70;;;;;;4938958;28;20035;-82
2021/06/01 09:35:56;;;;;;;5.82;2.58;;;21.00;48.10;;;;;;4950682;28;20047;-80
2021/06/01 09:38:43;;;;;;;4.53;2.40;;;21.00;50.70;;;;;;4935340;28;20039;-80
2021/06/01 09:41:16;;;;;;;3.95;2.28;;;21.00;50.80;;;;;;4934057;28;20126;-80
2021/06/01 09:43:53;;;;;;;3.28;2.53;;;21.00;47.60;;;;;;4944698;28;20055;-81
2021/06/01 09:46:31;;;;;;;4.35;2.50;;;21.10;47.20;;;;;;4943374;28;20138;-81
2021/06/01 09:49:12;;;;;;;3.90;2.30;;;21.20;46.40;;;;;;4943237;28;20049;-81
2021/06/01 09:51:39;;;;;;;7.30;2.33;;;21.30;44.20;;;;;;4954360;28;20106;-83
2021/06/01 09:54:58;;;;;;;5.05;2.30;;;21.40;43.90;;;;;;4951838;28;20035;-80
2021/06/01 09:57:27;;;;;;;3.22;2.00;;;21.50;43.70;;;;;;4929209;28;20051;-83
2021/06/01 10:00:13;;;;;;;6.75;2.65;;;21.50;45.00;;;;;;4952148;28;20113;-82
2021/06/01 10:02:39;;;;;;;3.45;1.90;;;21.50;45.00;;;;;;4947667;28;20138;-82
2021/06/01 10:05:08;;;;;;;4.00;2.28;;;21.60;44.00;;;;;;4947210;29;20293;-83
2021/06/01 10:07:34;;;;;;;4.53;2.15;;;21.60;42.50;;;;;;4946690;28;20071;-82
2021/06/01 10:10:00;;;;;;;5.53;2.42;;;21.70;42.30;;;;;;4948440;28;20039;-81
2021/06/01 10:12:26;;;;;;;5.03;2.38;;;21.70;42.20;;;;;;4948507;28;20043;-82
2021/06/01 10:14:52;;;;;;;4.18;1.88;;;21.70;43.90;;;;;;4931407;29;20067;-83
2021/06/01 10:17:18;;;;;;;4.93;2.30;;;21.70;44.90;;;;;;4944557;28;20483;-82
2021/06/01 10:19:44;;;;;;;4.10;2.40;;;21.70;46.50;;;;;;4948613;28;20469;-82
2021/06/01 10:22:11;;;;;;;3.85;2.15;;;21.60;46.40;;;;;;4937848;29;20039;-82
2021/06/01 10:24:37;;;;;;;2.75;2.17;;;21.60;45.50;;;;;;4935243;29;20055;-83
2021/06/01 10:27:07;;;;;;;5.28;2.20;;;21.60;44.60;;;;;;4925295;29;20508;-82
2021/06/01 10:29:33;;;;;;;6.25;2.10;;;21.60;45.20;;;;;;4948600;28;20035;-83
2021/06/01 10:31:59;;;;;;;3.22;2.08;;;21.60;45.60;;;;;;4952538;28;20046;-83
2021/06/01 10:34:25;;;;;;;3.10;2.20;;;21.60;45.10;;;;;;4921197;29;20041;-82
2021/06/01 10:50:44;;;;;;;3.10;2.10;;;22.00;45.00;;;;;;4935322;28;20043;-83
2021/06/01 10:53:28;;;;;;;6.80;2.22;;;22.10;43.60;;;;;;4932994;28;20061;-82
2021/06/01 10:56:03;;;;;;;3.22;2.30;;;22.10;44.00;;;;;;4969203;28;20043;-83
2021/06/01 10:58:37;;;;;;;4.45;2.13;;;22.10;41.70;;;;;;4948188;28;20035;-83
2021/06/01 11:04:27;;;;;;;3.72;2.50;;;22.20;46.00;;;;;;4967570;28;20051;-82
2021/06/01 11:09:37;;;;;;;6.35;2.42;;;22.20;44.60;;;;;;4946662;28;20046;-82
2021/06/01 11:12:20;;;;;;;3.85;2.40;;;22.20;45.40;;;;;;4984177;28;20039;-84
2021/06/01 11:14:56;;;;;;;2.95;2.22;;;22.30;45.10;;;;;;4954657;29;20046;-82
2021/06/01 11:17:39;;;;;;;2.83;2.10;;;22.30;44.30;;;;;;4951485;28;20031;-83
2021/06/01 11:20:12;;;;;;;3.15;2.40;;;22.40;39.80;;;;;;4981493;28;20035;-83
2021/06/01 11:22:56;;;;;;;4.85;2.30;;;22.40;42.70;;;;;;4950420;28;20031;-83
2021/06/01 11:33:29;;;;;;;5.35;2.45;;;22.60;41.40;;;;;;4947338;28;20479;-83
2021/06/01 11:36:04;;;;;;;9.27;3.08;;;22.70;41.50;;;;;;4930212;28;20408;-84
2021/06/01 11:39:46;;;;;;;5.20;2.55;;;22.70;42.00;;;;;;4935284;28;20064;-81
2021/06/01 11:44:28;;;;;;;5.80;2.55;;;22.80;42.20;;;;;;4919813;28;20052;-82
2021/06/01 11:47:15;;;;;;;5.32;2.70;;;22.80;42.20;;;;;;4936947;28;20266;-82
2021/06/01 11:52:27;;;;;;;4.95;2.53;;;22.90;42.40;;;;;;4931703;28;20044;-84
2021/06/01 11:54:53;;;;;;;7.43;2.63;;;22.90;41.50;;;;;;4965130;28;20094;-83
2021/06/01 11:57:32;;;;;;;5.57;2.40;;;23.00;41.80;;;;;;4950725;28;20039;-84
2021/06/01 12:02:54;;;;;;;5.38;2.50;;;23.10;41.80;;;;;;4948805;28;20095;-84
2021/06/01 12:19:04;;;;;;;6.63;2.83;;;23.40;42.00;;;;;;4971553;28;20039;-83
2021/06/01 12:21:34;;;;;;;3.88;2.58;;;23.50;42.20;;;;;;4947180;28;20046;-84
2021/06/01 12:24:04;;;;;;;5.32;2.78;;;23.50;42.40;;;;;;4951391;28;20563;-82
2021/06/01 12:26:44;;;;;;;3.42;2.80;;;23.50;42.20;;;;;;4951828;28;20130;-84
2021/06/01 12:32:07;;;;;;;5.28;3.05;;;23.60;42.40;;;;;;4949775;29;20363;-83
2021/06/01 13:08:54;;;;;;;2.70;2.50;;;24.00;42.30;;;;;;4935653;28;20134;-84
2021/06/01 13:30:41;;;;;;;4.05;2.90;;;24.30;39.50;;;;;;4962399;28;20038;-83
2021/06/01 13:39:08;;;;;;;4.15;2.75;;;24.40;40.60;;;;;;4932649;28;20032;-85
2021/06/01 13:46:53;;;;;;;5.38;2.47;;;24.60;38.30;;;;;;4937430;28;20040;-83
2021/06/01 13:49:35;;;;;;;6.20;2.60;;;24.60;37.70;;;;;;4958639;28;20039;-84
2021/06/01 13:52:12;;;;;;;4.28;2.50;;;24.50;37.90;;;;;;4944636;28;20043;-82
2021/06/01 14:30:22;;;;;;;3.92;3.03;;;24.40;40.30;;;;;;4951418;28;20035;-81
2021/06/01 14:36:02;;;;;;;4.57;2.88;;;24.30;40.30;;;;;;4929347;28;20032;-85
2021/06/01 15:22:45;;;;;;;7.25;3.38;;;24.80;42.50;;;;;;4931843;28;20035;-83
2021/06/01 15:33:02;;;;;;;3.55;3.08;;;24.50;42.30;;;;;;4951302;29;20035;-82
2021/06/01 16:22:38;;;;;;;7.63;3.45;;;24.40;42.90;;;;;;4967812;28;20051;-81
2021/06/01 17:03:28;;;;;;;4.93;3.55;;;24.40;42.10;;;;;;4940818;28;20031;-81
2021/06/01 17:06:04;;;;;;;7.32;3.90;;;24.80;41.50;;;;;;4937620;28;20039;-80
2021/06/01 17:13:53;;;;;;;5.35;3.83;;;25.30;41.10;;;;;;4944576;28;20480;-81
2021/06/01 17:19:31;;;;;;;5.72;4.35;;;24.90;42.80;;;;;;4939272;28;20049;-81
2021/06/01 17:35:18;;;;;;;6.40;4.50;;;24.70;44.00;;;;;;4977817;28;20038;-83
2021/06/01 17:37:45;;;;;;;7.50;4.70;;;24.70;44.40;;;;;;4952251;28;20043;-82
2021/06/01 17:40:15;;;;;;;8.80;5.03;;;24.60;44.70;;;;;;4952806;28;20522;-80
2021/06/01 17:42:50;;;;;;;6.32;4.45;;;24.50;44.50;;;;;;4939589;28;20032;-82
2021/06/01 17:45:20;;;;;;;8.57;4.78;;;24.40;44.80;;;;;;4940736;28;20077;-81
2021/06/01 17:47:59;;;;;;;6.00;4.13;;;24.30;45.10;;;;;;4930945;28;20039;-81
2021/06/01 17:50:26;;;;;;;8.55;5.13;;;24.30;45.00;;;;;;4939247;28;20042;-81
2021/06/01 17:52:56;;;;;;;7.57;4.90;;;24.10;45.30;;;;;;4920120;28;20558;-82
2021/06/01 17:55:24;;;;;;;12.02;4.30;;;24.10;45.90;;;;;;4946001;28;20545;-82
2021/06/01 17:57:51;;;;;;;6.22;5.10;;;24.00;46.50;;;;;;4939218;28;20126;-82
2021/06/01 18:00:20;;;;;;;10.73;5.28;;;24.00;48.40;;;;;;4936171;29;20039;-81
2021/06/01 18:02:50;;;;;;;10.80;5.15;;;23.80;49.70;;;;;;4932868;28;20039;-82
2021/06/01 18:05:20;;;;;;;8.75;5.40;;;23.70;51.20;;;;;;4939778;28;20063;-80
2021/06/01 18:08:03;;;;;;;10.05;5.85;;;23.50;51.20;;;;;;4951341;28;20608;-82
2021/06/01 19:25:26;;;;;;;9.52;5.32;;;19.90;59.70;;;;;;4935718;28;20039;-82
2021/06/01 19:50:22;;;;;;;12.88;5.50;;;19.30;61.50;;;;;;4946775;28;20752;-83
2021/06/01 19:52:54;;;;;;;8.48;4.95;;;19.20;61.50;;;;;;4948379;28;20035;-81
2021/06/01 19:55:24;;;;;;;9.15;4.90;;;19.10;61.70;;;;;;4948580;28;20082;-82
2021/06/01 19:57:52;;;;;;;10.40;5.03;;;19.00;61.90;;;;;;4951109;28;20122;-81
2021/06/01 20:00:19;;;;;;;11.32;5.30;;;18.90;61.90;;;;;;4938145;29;20046;-80
2021/06/01 20:02:46;;;;;;;7.07;5.20;;;18.90;62.20;;;;;;4952399;29;20394;-83
2021/06/01 20:05:14;;;;;;;8.10;5.72;;;18.80;62.40;;;;;;4951025;28;20679;-81
2021/06/01 20:07:40;;;;;;;7.03;5.47;;;18.80;62.60;;;;;;4953890;29;20035;-81